Indian Cove, Idaho
Current Conditions -  °F | °C
As of 5:58 PM on Monday 22 Dec 2014 (Local Time) from KMUO Reporting Station
Clear Clear  
Wind Chill: 31°   Ceiling: Unl
Heat Index: 38°   Visibility: 10mi
Dew Point: 31°   Wind: 12mph
Humidity: 76%   Direction: 320°NW
Pressure: 30.25"   Gusts: NA
Location:  42.9835°N, 115.554°W
Report Text: KMUO 230058Z AUTO 32010KT 10SM CLR 04/00 A3025 RMK AO2 SLP256 T00361003
Loading
Personal Weather Stations






























Interactive Weather Map New forecast layout! Learn more

10-Day Weather Forecast

Advertisements
Track Severe Weather on mobile